sensor_id;sensor_type;location;lat;lon;timestamp;P1;durP1;ratioP1;P2;durP2;ratioP2
44810;SDS011;30526;52.184;4.476;2023-07-13T00:01:42;16.50;;;2.70;;
44810;SDS011;30526;52.184;4.476;2023-07-13T00:04:08;5.05;;;1.40;;
44810;SDS011;30526;52.184;4.476;2023-07-13T00:06:35;7.27;;;1.50;;
44810;SDS011;30526;52.184;4.476;2023-07-13T00:09:01;7.78;;;1.70;;
44810;SDS011;30526;52.184;4.476;2023-07-13T00:11:27;5.88;;;1.38;;
44810;SDS011;30526;52.184;4.476;2023-07-13T00:13:54;6.20;;;2.03;;
44810;SDS011;30526;52.184;4.476;2023-07-13T00:16:20;7.18;;;1.73;;
44810;SDS011;30526;52.184;4.476;2023-07-13T00:18:46;3.85;;;1.30;;
44810;SDS011;30526;52.184;4.476;2023-07-13T00:21:12;5.13;;;1.17;;
44810;SDS011;30526;52.184;4.476;2023-07-13T00:23:40;9.35;;;1.63;;
44810;SDS011;30526;52.184;4.476;2023-07-13T00:26:07;5.10;;;1.35;;
44810;SDS011;30526;52.184;4.476;2023-07-13T00:30:59;14.10;;;1.92;;
44810;SDS011;30526;52.184;4.476;2023-07-13T00:33:26;6.60;;;2.08;;
44810;SDS011;30526;52.184;4.476;2023-07-13T00:38:19;7.07;;;1.45;;
44810;SDS011;30526;52.184;4.476;2023-07-13T00:40:45;6.63;;;1.42;;
44810;SDS011;30526;52.184;4.476;2023-07-13T00:43:15;6.35;;;1.70;;
44810;SDS011;30526;52.184;4.476;2023-07-13T00:48:11;8.63;;;1.52;;
44810;SDS011;30526;52.184;4.476;2023-07-13T00:50:38;11.43;;;1.58;;
44810;SDS011;30526;52.184;4.476;2023-07-13T00:53:04;11.77;;;1.73;;
44810;SDS011;30526;52.184;4.476;2023-07-13T00:55:30;4.15;;;1.58;;
44810;SDS011;30526;52.184;4.476;2023-07-13T00:57:57;11.35;;;1.73;;
44810;SDS011;30526;52.184;4.476;2023-07-13T01:00:23;9.55;;;1.60;;
44810;SDS011;30526;52.184;4.476;2023-07-13T01:02:51;10.07;;;1.88;;
44810;SDS011;30526;52.184;4.476;2023-07-13T01:05:18;4.50;;;1.15;;
44810;SDS011;30526;52.184;4.476;2023-07-13T01:07:45;3.33;;;1.15;;
44810;SDS011;30526;52.184;4.476;2023-07-13T01:10:13;9.45;;;1.77;;
44810;SDS011;30526;52.184;4.476;2023-07-13T01:12:40;7.65;;;1.52;;
44810;SDS011;30526;52.184;4.476;2023-07-13T01:15:32;5.68;;;1.80;;
44810;SDS011;30526;52.184;4.476;2023-07-13T01:17:52;7.83;;;1.63;;
44810;SDS011;30526;52.184;4.476;2023-07-13T01:20:20;4.10;;;1.20;;
44810;SDS011;30526;52.184;4.476;2023-07-13T01:22:46;6.82;;;1.58;;
44810;SDS011;30526;52.184;4.476;2023-07-13T01:25:12;4.97;;;1.33;;
44810;SDS011;30526;52.184;4.476;2023-07-13T01:27:38;12.40;;;1.40;;
44810;SDS011;30526;52.184;4.476;2023-07-13T01:30:06;7.07;;;1.10;;
44810;SDS011;30526;52.184;4.476;2023-07-13T01:32:32;9.55;;;1.35;;
44810;SDS011;30526;52.184;4.476;2023-07-13T01:34:59;6.28;;;1.70;;
44810;SDS011;30526;52.184;4.476;2023-07-13T01:37:25;9.85;;;1.23;;
44810;SDS011;30526;52.184;4.476;2023-07-13T01:39:52;8.50;;;1.50;;
44810;SDS011;30526;52.184;4.476;2023-07-13T01:42:18;4.47;;;1.30;;
44810;SDS011;30526;52.184;4.476;2023-07-13T01:44:45;6.65;;;1.33;;
44810;SDS011;30526;52.184;4.476;2023-07-13T01:47:11;9.90;;;1.52;;
44810;SDS011;30526;52.184;4.476;2023-07-13T01:49:37;5.65;;;1.00;;
44810;SDS011;30526;52.184;4.476;2023-07-13T01:52:03;7.72;;;1.48;;
44810;SDS011;30526;52.184;4.476;2023-07-13T01:54:29;5.55;;;1.52;;
44810;SDS011;30526;52.184;4.476;2023-07-13T01:56:55;6.82;;;1.15;;
44810;SDS011;30526;52.184;4.476;2023-07-13T01:59:21;4.65;;;1.20;;
44810;SDS011;30526;52.184;4.476;2023-07-13T02:01:47;7.25;;;1.42;;
44810;SDS011;30526;52.184;4.476;2023-07-13T02:04:13;6.07;;;1.30;;
44810;SDS011;30526;52.184;4.476;2023-07-13T02:06:39;6.75;;;1.20;;
44810;SDS011;30526;52.184;4.476;2023-07-13T02:09:06;14.98;;;1.67;;
44810;SDS011;30526;52.184;4.476;2023-07-13T02:11:32;5.22;;;1.13;;
44810;SDS011;30526;52.184;4.476;2023-07-13T02:13:59;6.57;;;1.30;;
44810;SDS011;30526;52.184;4.476;2023-07-13T02:16:26;4.80;;;1.13;;
44810;SDS011;30526;52.184;4.476;2023-07-13T02:18:52;15.20;;;1.40;;
44810;SDS011;30526;52.184;4.476;2023-07-13T02:21:20;6.07;;;1.23;;
44810;SDS011;30526;52.184;4.476;2023-07-13T02:23:46;12.75;;;1.80;;
44810;SDS011;30526;52.184;4.476;2023-07-13T02:26:12;5.50;;;1.33;;
44810;SDS011;30526;52.184;4.476;2023-07-13T02:28:38;4.57;;;1.70;;
44810;SDS011;30526;52.184;4.476;2023-07-13T02:31:08;5.70;;;1.88;;
44810;SDS011;30526;52.184;4.476;2023-07-13T02:33:35;10.38;;;1.60;;
44810;SDS011;30526;52.184;4.476;2023-07-13T02:36:01;4.53;;;1.40;;
44810;SDS011;30526;52.184;4.476;2023-07-13T02:38:27;7.40;;;1.70;;
44810;SDS011;30526;52.184;4.476;2023-07-13T02:40:53;9.70;;;1.67;;
44810;SDS011;30526;52.184;4.476;2023-07-13T02:43:19;10.73;;;1.60;;
44810;SDS011;30526;52.184;4.476;2023-07-13T02:45:45;6.95;;;1.42;;
44810;SDS011;30526;52.184;4.476;2023-07-13T02:48:13;4.40;;;2.00;;
44810;SDS011;30526;52.184;4.476;2023-07-13T02:53:05;7.53;;;1.83;;
44810;SDS011;30526;52.184;4.476;2023-07-13T02:55:31;4.45;;;1.85;;
44810;SDS011;30526;52.184;4.476;2023-07-13T02:57:57;8.30;;;1.80;;
44810;SDS011;30526;52.184;4.476;2023-07-13T03:00:23;11.48;;;2.50;;
44810;SDS011;30526;52.184;4.476;2023-07-13T03:02:49;10.50;;;1.85;;
44810;SDS011;30526;52.184;4.476;2023-07-13T03:05:16;4.25;;;1.40;;
44810;SDS011;30526;52.184;4.476;2023-07-13T03:07:43;13.50;;;2.55;;
44810;SDS011;30526;52.184;4.476;2023-07-13T03:10:09;13.02;;;2.42;;
44810;SDS011;30526;52.184;4.476;2023-07-13T03:12:35;7.68;;;2.13;;
44810;SDS011;30526;52.184;4.476;2023-07-13T03:15:01;14.00;;;2.30;;
44810;SDS011;30526;52.184;4.476;2023-07-13T03:17:27;12.43;;;2.20;;
44810;SDS011;30526;52.184;4.476;2023-07-13T03:19:53;9.18;;;2.50;;
44810;SDS011;30526;52.184;4.476;2023-07-13T03:22:20;11.98;;;2.10;;
44810;SDS011;30526;52.184;4.476;2023-07-13T03:24:46;14.32;;;2.33;;
44810;SDS011;30526;52.184;4.476;2023-07-13T03:29:39;13.75;;;2.72;;
44810;SDS011;30526;52.184;4.476;2023-07-13T03:32:05;11.90;;;2.63;;
44810;SDS011;30526;52.184;4.476;2023-07-13T03:34:31;13.77;;;3.30;;
44810;SDS011;30526;52.184;4.476;2023-07-13T03:36:58;13.25;;;2.58;;
44810;SDS011;30526;52.184;4.476;2023-07-13T03:39:24;11.27;;;2.58;;
44810;SDS011;30526;52.184;4.476;2023-07-13T03:41:50;13.05;;;2.70;;
44810;SDS011;30526;52.184;4.476;2023-07-13T03:44:17;13.82;;;2.63;;
44810;SDS011;30526;52.184;4.476;2023-07-13T03:46:43;10.77;;;2.00;;
44810;SDS011;30526;52.184;4.476;2023-07-13T03:49:10;17.95;;;3.15;;
44810;SDS011;30526;52.184;4.476;2023-07-13T03:51:36;11.93;;;2.97;;
44810;SDS011;30526;52.184;4.476;2023-07-13T03:54:02;13.27;;;2.95;;
44810;SDS011;30526;52.184;4.476;2023-07-13T03:56:29;13.73;;;2.60;;
44810;SDS011;30526;52.184;4.476;2023-07-13T03:58:56;12.13;;;2.33;;
44810;SDS011;30526;52.184;4.476;2023-07-13T04:01:22;21.42;;;3.17;;
44810;SDS011;30526;52.184;4.476;2023-07-13T04:03:50;20.70;;;3.17;;
44810;SDS011;30526;52.184;4.476;2023-07-13T04:06:20;13.18;;;2.72;;
44810;SDS011;30526;52.184;4.476;2023-07-13T04:08:51;15.70;;;2.78;;
44810;SDS011;30526;52.184;4.476;2023-07-13T04:11:18;18.80;;;4.40;;
44810;SDS011;30526;52.184;4.476;2023-07-13T04:13:45;10.02;;;3.13;;
44810;SDS011;30526;52.184;4.476;2023-07-13T04:16:12;14.88;;;3.10;;
44810;SDS011;30526;52.184;4.476;2023-07-13T04:18:38;14.40;;;2.58;;
44810;SDS011;30526;52.184;4.476;2023-07-13T04:21:04;15.55;;;2.97;;
44810;SDS011;30526;52.184;4.476;2023-07-13T04:23:31;15.82;;;3.38;;
44810;SDS011;30526;52.184;4.476;2023-07-13T04:25:57;11.98;;;2.70;;
44810;SDS011;30526;52.184;4.476;2023-07-13T04:28:23;11.80;;;3.17;;
44810;SDS011;30526;52.184;4.476;2023-07-13T04:30:50;8.02;;;2.25;;
44810;SDS011;30526;52.184;4.476;2023-07-13T04:33:16;15.75;;;3.35;;
44810;SDS011;30526;52.184;4.476;2023-07-13T04:35:42;10.60;;;2.65;;
44810;SDS011;30526;52.184;4.476;2023-07-13T04:38:09;14.87;;;2.97;;
44810;SDS011;30526;52.184;4.476;2023-07-13T04:43:02;9.35;;;2.63;;
44810;SDS011;30526;52.184;4.476;2023-07-13T04:45:28;12.30;;;2.67;;
44810;SDS011;30526;52.184;4.476;2023-07-13T04:47:56;25.92;;;3.38;;
44810;SDS011;30526;52.184;4.476;2023-07-13T04:50:22;14.98;;;2.97;;
44810;SDS011;30526;52.184;4.476;2023-07-13T04:52:49;10.48;;;2.65;;
44810;SDS011;30526;52.184;4.476;2023-07-13T04:57:41;14.88;;;2.60;;
44810;SDS011;30526;52.184;4.476;2023-07-13T05:00:07;8.27;;;2.42;;
44810;SDS011;30526;52.184;4.476;2023-07-13T05:02:34;12.32;;;2.55;;
44810;SDS011;30526;52.184;4.476;2023-07-13T05:05:01;8.93;;;2.75;;
44810;SDS011;30526;52.184;4.476;2023-07-13T05:07:29;13.45;;;2.70;;
44810;SDS011;30526;52.184;4.476;2023-07-13T05:09:55;9.10;;;2.70;;
44810;SDS011;30526;52.184;4.476;2023-07-13T05:12:21;10.10;;;2.53;;
44810;SDS011;30526;52.184;4.476;2023-07-13T05:14:47;11.98;;;2.42;;
44810;SDS011;30526;52.184;4.476;2023-07-13T05:17:14;11.90;;;2.95;;
44810;SDS011;30526;52.184;4.476;2023-07-13T05:19:40;4.90;;;2.08;;
44810;SDS011;30526;52.184;4.476;2023-07-13T05:22:06;12.48;;;2.30;;
44810;SDS011;30526;52.184;4.476;2023-07-13T05:24:33;12.47;;;2.90;;
44810;SDS011;30526;52.184;4.476;2023-07-13T05:26:59;10.65;;;3.00;;
44810;SDS011;30526;52.184;4.476;2023-07-13T05:29:25;9.93;;;2.97;;
44810;SDS011;30526;52.184;4.476;2023-07-13T05:31:51;9.68;;;2.13;;
44810;SDS011;30526;52.184;4.476;2023-07-13T05:34:17;11.25;;;2.67;;
44810;SDS011;30526;52.184;4.476;2023-07-13T05:36:43;10.38;;;2.50;;
44810;SDS011;30526;52.184;4.476;2023-07-13T05:39:09;10.82;;;2.78;;
44810;SDS011;30526;52.184;4.476;2023-07-13T05:41:36;8.45;;;2.40;;
44810;SDS011;30526;52.184;4.476;2023-07-13T05:44:02;9.80;;;1.95;;
44810;SDS011;30526;52.184;4.476;2023-07-13T05:46:29;6.25;;;2.38;;
44810;SDS011;30526;52.184;4.476;2023-07-13T05:48:55;6.50;;;2.22;;
44810;SDS011;30526;52.184;4.476;2023-07-13T05:51:22;9.73;;;2.53;;
44810;SDS011;30526;52.184;4.476;2023-07-13T05:53:48;32.70;;;4.22;;
44810;SDS011;30526;52.184;4.476;2023-07-13T05:56:14;11.75;;;3.05;;
44810;SDS011;30526;52.184;4.476;2023-07-13T05:58:40;8.20;;;3.40;;
44810;SDS011;30526;52.184;4.476;2023-07-13T06:01:09;16.10;;;3.10;;
44810;SDS011;30526;52.184;4.476;2023-07-13T06:03:35;16.92;;;3.40;;
44810;SDS011;30526;52.184;4.476;2023-07-13T06:08:29;9.77;;;2.90;;
44810;SDS011;30526;52.184;4.476;2023-07-13T06:10:58;12.55;;;3.25;;
44810;SDS011;30526;52.184;4.476;2023-07-13T06:13:27;15.25;;;3.38;;
44810;SDS011;30526;52.184;4.476;2023-07-13T06:15:53;12.93;;;3.50;;
44810;SDS011;30526;52.184;4.476;2023-07-13T06:18:19;14.13;;;3.30;;
44810;SDS011;30526;52.184;4.476;2023-07-13T06:20:45;9.65;;;3.03;;
44810;SDS011;30526;52.184;4.476;2023-07-13T06:23:11;13.60;;;3.30;;
44810;SDS011;30526;52.184;4.476;2023-07-13T06:25:37;13.25;;;3.20;;
44810;SDS011;30526;52.184;4.476;2023-07-13T06:28:03;16.08;;;2.92;;
44810;SDS011;30526;52.184;4.476;2023-07-13T06:30:29;11.63;;;2.95;;
44810;SDS011;30526;52.184;4.476;2023-07-13T06:32:56;8.77;;;2.97;;
44810;SDS011;30526;52.184;4.476;2023-07-13T06:35:22;11.43;;;3.38;;
44810;SDS011;30526;52.184;4.476;2023-07-13T06:37:49;13.93;;;2.72;;
44810;SDS011;30526;52.184;4.476;2023-07-13T06:40:15;14.73;;;3.78;;
44810;SDS011;30526;52.184;4.476;2023-07-13T06:42:42;4.43;;;2.17;;
44810;SDS011;30526;52.184;4.476;2023-07-13T06:45:08;12.00;;;2.83;;
44810;SDS011;30526;52.184;4.476;2023-07-13T06:47:34;6.18;;;2.42;;
44810;SDS011;30526;52.184;4.476;2023-07-13T06:50:00;11.30;;;2.55;;
44810;SDS011;30526;52.184;4.476;2023-07-13T06:52:27;7.53;;;2.42;;
44810;SDS011;30526;52.184;4.476;2023-07-13T06:54:53;6.05;;;2.47;;
44810;SDS011;30526;52.184;4.476;2023-07-13T06:57:19;13.88;;;2.90;;
44810;SDS011;30526;52.184;4.476;2023-07-13T06:59:45;8.20;;;2.53;;
44810;SDS011;30526;52.184;4.476;2023-07-13T07:02:11;14.25;;;3.17;;
44810;SDS011;30526;52.184;4.476;2023-07-13T07:04:37;7.72;;;2.47;;
44810;SDS011;30526;52.184;4.476;2023-07-13T07:07:03;16.75;;;2.40;;
44810;SDS011;30526;52.184;4.476;2023-07-13T07:09:29;11.80;;;2.83;;
44810;SDS011;30526;52.184;4.476;2023-07-13T07:11:56;9.25;;;2.05;;
44810;SDS011;30526;52.184;4.476;2023-07-13T07:14:22;6.82;;;2.60;;
44810;SDS011;30526;52.184;4.476;2023-07-13T07:16:49;6.65;;;2.05;;
44810;SDS011;30526;52.184;4.476;2023-07-13T07:19:16;12.40;;;2.75;;
44810;SDS011;30526;52.184;4.476;2023-07-13T07:21:43;5.63;;;2.38;;
44810;SDS011;30526;52.184;4.476;2023-07-13T07:24:09;8.68;;;2.20;;
44810;SDS011;30526;52.184;4.476;2023-07-13T07:26:35;12.32;;;2.65;;
44810;SDS011;30526;52.184;4.476;2023-07-13T07:29:02;8.07;;;2.20;;
44810;SDS011;30526;52.184;4.476;2023-07-13T07:31:28;10.65;;;2.30;;
44810;SDS011;30526;52.184;4.476;2023-07-13T07:33:54;7.63;;;2.33;;
44810;SDS011;30526;52.184;4.476;2023-07-13T07:36:20;4.95;;;1.80;;
44810;SDS011;30526;52.184;4.476;2023-07-13T07:38:46;9.60;;;2.30;;
44810;SDS011;30526;52.184;4.476;2023-07-13T07:41:12;8.52;;;2.35;;
44810;SDS011;30526;52.184;4.476;2023-07-13T07:43:38;6.38;;;2.05;;
44810;SDS011;30526;52.184;4.476;2023-07-13T07:46:04;6.72;;;2.15;;
44810;SDS011;30526;52.184;4.476;2023-07-13T07:48:31;8.60;;;2.10;;
44810;SDS011;30526;52.184;4.476;2023-07-13T07:50:57;10.02;;;2.78;;
44810;SDS011;30526;52.184;4.476;2023-07-13T07:53:23;9.40;;;2.47;;
44810;SDS011;30526;52.184;4.476;2023-07-13T07:55:49;8.25;;;2.42;;
44810;SDS011;30526;52.184;4.476;2023-07-13T07:58:16;8.40;;;2.50;;
44810;SDS011;30526;52.184;4.476;2023-07-13T08:00:42;4.50;;;2.42;;
44810;SDS011;30526;52.184;4.476;2023-07-13T08:03:08;8.93;;;2.67;;
44810;SDS011;30526;52.184;4.476;2023-07-13T08:05:35;10.03;;;3.57;;
44810;SDS011;30526;52.184;4.476;2023-07-13T08:08:03;7.85;;;2.60;;
44810;SDS011;30526;52.184;4.476;2023-07-13T08:10:30;13.07;;;2.70;;
44810;SDS011;30526;52.184;4.476;2023-07-13T08:12:56;6.30;;;2.50;;
44810;SDS011;30526;52.184;4.476;2023-07-13T08:15:22;12.40;;;3.47;;
44810;SDS011;30526;52.184;4.476;2023-07-13T08:17:49;11.25;;;3.10;;
44810;SDS011;30526;52.184;4.476;2023-07-13T08:20:15;10.52;;;2.67;;
44810;SDS011;30526;52.184;4.476;2023-07-13T08:22:41;8.82;;;2.53;;
44810;SDS011;30526;52.184;4.476;2023-07-13T08:25:07;9.45;;;2.80;;
44810;SDS011;30526;52.184;4.476;2023-07-13T08:27:33;9.82;;;2.40;;
44810;SDS011;30526;52.184;4.476;2023-07-13T08:30:00;9.13;;;2.67;;
44810;SDS011;30526;52.184;4.476;2023-07-13T08:32:26;10.25;;;2.53;;
44810;SDS011;30526;52.184;4.476;2023-07-13T08:34:52;12.15;;;3.15;;
44810;SDS011;30526;52.184;4.476;2023-07-13T08:39:45;8.23;;;2.85;;
44810;SDS011;30526;52.184;4.476;2023-07-13T08:42:14;11.57;;;2.20;;
44810;SDS011;30526;52.184;4.476;2023-07-13T08:44:49;12.52;;;3.10;;
44810;SDS011;30526;52.184;4.476;2023-07-13T08:47:17;11.60;;;2.92;;
44810;SDS011;30526;52.184;4.476;2023-07-13T08:49:45;11.68;;;3.03;;
44810;SDS011;30526;52.184;4.476;2023-07-13T08:52:14;9.45;;;3.20;;
44810;SDS011;30526;52.184;4.476;2023-07-13T08:54:44;9.75;;;3.00;;
44810;SDS011;30526;52.184;4.476;2023-07-13T08:57:19;5.60;;;2.47;;
44810;SDS011;30526;52.184;4.476;2023-07-13T08:59:46;9.60;;;2.80;;
44810;SDS011;30526;52.184;4.476;2023-07-13T09:02:26;9.55;;;2.47;;
44810;SDS011;30526;52.184;4.476;2023-07-13T09:05:14;10.55;;;2.90;;
44810;SDS011;30526;52.184;4.476;2023-07-13T09:15:02;8.35;;;2.80;;
44810;SDS011;30526;52.184;4.476;2023-07-13T09:17:34;7.25;;;2.05;;
44810;SDS011;30526;52.184;4.476;2023-07-13T09:20:06;9.50;;;2.45;;
44810;SDS011;30526;52.184;4.476;2023-07-13T09:22:36;13.10;;;2.97;;
44810;SDS011;30526;52.184;4.476;2023-07-13T09:27:39;11.25;;;2.70;;
44810;SDS011;30526;52.184;4.476;2023-07-13T09:32:39;8.82;;;3.08;;
44810;SDS011;30526;52.184;4.476;2023-07-13T09:35:12;13.15;;;3.13;;
44810;SDS011;30526;52.184;4.476;2023-07-13T09:37:38;12.73;;;2.83;;
44810;SDS011;30526;52.184;4.476;2023-07-13T09:40:08;9.18;;;3.28;;
44810;SDS011;30526;52.184;4.476;2023-07-13T09:42:37;12.00;;;3.05;;
44810;SDS011;30526;52.184;4.476;2023-07-13T09:45:03;9.93;;;3.15;;
44810;SDS011;30526;52.184;4.476;2023-07-13T09:47:38;9.05;;;2.80;;
44810;SDS011;30526;52.184;4.476;2023-07-13T09:50:06;10.23;;;2.33;;
44810;SDS011;30526;52.184;4.476;2023-07-13T09:52:43;6.25;;;2.40;;
44810;SDS011;30526;52.184;4.476;2023-07-13T09:55:23;8.27;;;2.22;;
44810;SDS011;30526;52.184;4.476;2023-07-13T09:57:50;11.57;;;3.42;;
44810;SDS011;30526;52.184;4.476;2023-07-13T10:00:22;5.88;;;2.80;;
44810;SDS011;30526;52.184;4.476;2023-07-13T10:02:55;10.52;;;3.33;;
44810;SDS011;30526;52.184;4.476;2023-07-13T10:05:23;12.13;;;3.25;;
44810;SDS011;30526;52.184;4.476;2023-07-13T10:07:50;4.13;;;2.33;;
44810;SDS011;30526;52.184;4.476;2023-07-13T10:10:26;11.77;;;2.83;;
44810;SDS011;30526;52.184;4.476;2023-07-13T10:12:52;12.23;;;3.00;;
44810;SDS011;30526;52.184;4.476;2023-07-13T10:15:22;13.48;;;2.85;;
44810;SDS011;30526;52.184;4.476;2023-07-13T10:17:49;11.35;;;2.75;;
44810;SDS011;30526;52.184;4.476;2023-07-13T10:20:16;9.57;;;3.05;;
44810;SDS011;30526;52.184;4.476;2023-07-13T10:22:54;10.90;;;2.53;;
44810;SDS011;30526;52.184;4.476;2023-07-13T10:25:23;10.25;;;2.38;;
44810;SDS011;30526;52.184;4.476;2023-07-13T10:27:52;14.65;;;2.60;;
44810;SDS011;30526;52.184;4.476;2023-07-13T10:30:30;9.85;;;2.75;;
44810;SDS011;30526;52.184;4.476;2023-07-13T10:32:58;8.70;;;2.75;;
44810;SDS011;30526;52.184;4.476;2023-07-13T10:35:25;13.07;;;3.15;;
44810;SDS011;30526;52.184;4.476;2023-07-13T10:40:26;7.53;;;2.70;;
44810;SDS011;30526;52.184;4.476;2023-07-13T10:42:55;7.93;;;3.17;;
44810;SDS011;30526;52.184;4.476;2023-07-13T10:45:23;8.38;;;3.10;;
44810;SDS011;30526;52.184;4.476;2023-07-13T10:47:50;10.60;;;3.20;;
44810;SDS011;30526;52.184;4.476;2023-07-13T10:50:21;13.73;;;3.00;;
44810;SDS011;30526;52.184;4.476;2023-07-13T10:52:49;11.10;;;3.28;;
44810;SDS011;30526;52.184;4.476;2023-07-13T10:57:41;13.57;;;3.13;;
44810;SDS011;30526;52.184;4.476;2023-07-13T11:00:15;8.18;;;3.15;;
44810;SDS011;30526;52.184;4.476;2023-07-13T11:02:42;7.13;;;2.90;;
44810;SDS011;30526;52.184;4.476;2023-07-13T11:05:20;11.80;;;3.10;;
44810;SDS011;30526;52.184;4.476;2023-07-13T11:07:53;14.07;;;3.58;;
44810;SDS011;30526;52.184;4.476;2023-07-13T11:13:28;7.90;;;3.15;;
44810;SDS011;30526;52.184;4.476;2023-07-13T11:15:52;7.37;;;2.87;;
44810;SDS011;30526;52.184;4.476;2023-07-13T11:18:22;6.97;;;2.80;;
44810;SDS011;30526;52.184;4.476;2023-07-13T11:20:50;11.48;;;3.35;;
44810;SDS011;30526;52.184;4.476;2023-07-13T11:25:42;8.60;;;3.47;;
44810;SDS011;30526;52.184;4.476;2023-07-13T11:35:51;9.15;;;2.97;;
44810;SDS011;30526;52.184;4.476;2023-07-13T11:38:20;11.35;;;3.30;;
44810;SDS011;30526;52.184;4.476;2023-07-13T11:40:47;9.52;;;2.45;;
44810;SDS011;30526;52.184;4.476;2023-07-13T11:45:40;11.55;;;3.20;;
44810;SDS011;30526;52.184;4.476;2023-07-13T11:48:17;12.13;;;3.15;;
44810;SDS011;30526;52.184;4.476;2023-07-13T11:50:48;12.27;;;3.55;;
44810;SDS011;30526;52.184;4.476;2023-07-13T11:53:15;7.95;;;3.10;;
44810;SDS011;30526;52.184;4.476;2023-07-13T11:55:41;8.07;;;2.95;;
44810;SDS011;30526;52.184;4.476;2023-07-13T11:58:08;16.98;;;2.47;;
44810;SDS011;30526;52.184;4.476;2023-07-13T12:03:03;11.70;;;3.42;;
44810;SDS011;30526;52.184;4.476;2023-07-13T12:05:30;9.05;;;2.95;;
44810;SDS011;30526;52.184;4.476;2023-07-13T12:10:24;5.83;;;2.73;;
44810;SDS011;30526;52.184;4.476;2023-07-13T12:12:55;10.20;;;2.47;;
44810;SDS011;30526;52.184;4.476;2023-07-13T12:15:22;9.05;;;3.10;;
44810;SDS011;30526;52.184;4.476;2023-07-13T12:17:48;8.98;;;2.53;;
44810;SDS011;30526;52.184;4.476;2023-07-13T12:22:47;8.60;;;2.70;;
44810;SDS011;30526;52.184;4.476;2023-07-13T12:25:13;6.65;;;2.55;;
44810;SDS011;30526;52.184;4.476;2023-07-13T12:27:39;4.15;;;2.28;;
44810;SDS011;30526;52.184;4.476;2023-07-13T12:30:21;6.37;;;2.63;;
44810;SDS011;30526;52.184;4.476;2023-07-13T12:33:08;10.00;;;2.67;;
44810;SDS011;30526;52.184;4.476;2023-07-13T12:35:47;6.10;;;2.17;;
44810;SDS011;30526;52.184;4.476;2023-07-13T12:38:13;5.10;;;2.40;;
44810;SDS011;30526;52.184;4.476;2023-07-13T12:40:40;5.40;;;2.35;;
44810;SDS011;30526;52.184;4.476;2023-07-13T12:43:11;7.63;;;2.17;;
44810;SDS011;30526;52.184;4.476;2023-07-13T12:45:37;5.40;;;2.72;;
44810;SDS011;30526;52.184;4.476;2023-07-13T12:50:37;6.00;;;2.10;;
44810;SDS011;30526;52.184;4.476;2023-07-13T12:53:06;5.05;;;2.63;;
44810;SDS011;30526;52.184;4.476;2023-07-13T12:55:40;6.18;;;2.33;;
44810;SDS011;30526;52.184;4.476;2023-07-13T12:58:09;7.50;;;2.17;;
44810;SDS011;30526;52.184;4.476;2023-07-13T13:00:39;4.35;;;2.22;;
44810;SDS011;30526;52.184;4.476;2023-07-13T13:03:07;6.88;;;2.22;;
44810;SDS011;30526;52.184;4.476;2023-07-13T13:05:33;11.13;;;2.40;;
44810;SDS011;30526;52.184;4.476;2023-07-13T13:08:01;5.22;;;2.30;;
44810;SDS011;30526;52.184;4.476;2023-07-13T13:10:27;5.97;;;2.20;;
44810;SDS011;30526;52.184;4.476;2023-07-13T13:15:20;7.43;;;2.05;;
44810;SDS011;30526;52.184;4.476;2023-07-13T13:17:47;4.40;;;2.08;;
44810;SDS011;30526;52.184;4.476;2023-07-13T13:20:18;7.00;;;2.20;;
44810;SDS011;30526;52.184;4.476;2023-07-13T13:22:44;4.80;;;2.38;;
44810;SDS011;30526;52.184;4.476;2023-07-13T13:25:11;7.97;;;2.40;;
44810;SDS011;30526;52.184;4.476;2023-07-13T13:27:37;9.98;;;2.53;;
44810;SDS011;30526;52.184;4.476;2023-07-13T13:30:09;6.35;;;2.50;;
44810;SDS011;30526;52.184;4.476;2023-07-13T13:32:37;4.93;;;2.10;;
44810;SDS011;30526;52.184;4.476;2023-07-13T13:35:04;6.85;;;2.05;;
44810;SDS011;30526;52.184;4.476;2023-07-13T13:37:31;5.30;;;2.00;;
44810;SDS011;30526;52.184;4.476;2023-07-13T13:39:57;7.38;;;2.45;;
44810;SDS011;30526;52.184;4.476;2023-07-13T13:42:23;8.50;;;2.25;;
44810;SDS011;30526;52.184;4.476;2023-07-13T13:44:51;6.75;;;2.33;;
44810;SDS011;30526;52.184;4.476;2023-07-13T13:47:30;5.90;;;2.00;;
44810;SDS011;30526;52.184;4.476;2023-07-13T13:49:57;4.72;;;1.92;;
44810;SDS011;30526;52.184;4.476;2023-07-13T13:52:24;3.20;;;1.70;;
44810;SDS011;30526;52.184;4.476;2023-07-13T13:54:50;6.20;;;2.10;;
44810;SDS011;30526;52.184;4.476;2023-07-13T13:57:21;5.45;;;1.98;;
44810;SDS011;30526;52.184;4.476;2023-07-13T13:59:48;6.00;;;2.15;;
44810;SDS011;30526;52.184;4.476;2023-07-13T14:02:22;6.18;;;2.00;;
44810;SDS011;30526;52.184;4.476;2023-07-13T14:04:50;5.55;;;2.15;;
44810;SDS011;30526;52.184;4.476;2023-07-13T14:07:16;5.10;;;2.22;;
44810;SDS011;30526;52.184;4.476;2023-07-13T14:09:42;4.65;;;1.90;;
44810;SDS011;30526;52.184;4.476;2023-07-13T14:12:09;6.82;;;2.10;;
44810;SDS011;30526;52.184;4.476;2023-07-13T14:14:37;6.15;;;2.28;;
44810;SDS011;30526;52.184;4.476;2023-07-13T14:17:03;6.05;;;2.05;;
44810;SDS011;30526;52.184;4.476;2023-07-13T14:19:30;5.75;;;1.80;;
44810;SDS011;30526;52.184;4.476;2023-07-13T14:21:56;6.03;;;2.38;;
44810;SDS011;30526;52.184;4.476;2023-07-13T14:26:50;4.32;;;2.10;;
44810;SDS011;30526;52.184;4.476;2023-07-13T14:29:17;6.27;;;2.23;;
44810;SDS011;30526;52.184;4.476;2023-07-13T14:31:43;4.00;;;1.88;;
44810;SDS011;30526;52.184;4.476;2023-07-13T14:34:10;6.25;;;2.53;;
44810;SDS011;30526;52.184;4.476;2023-07-13T14:36:47;3.67;;;1.75;;
44810;SDS011;30526;52.184;4.476;2023-07-13T14:39:15;5.32;;;2.15;;
44810;SDS011;30526;52.184;4.476;2023-07-13T14:41:42;6.57;;;2.15;;
44810;SDS011;30526;52.184;4.476;2023-07-13T14:44:10;6.63;;;2.40;;
44810;SDS011;30526;52.184;4.476;2023-07-13T14:46:36;8.30;;;2.38;;
44810;SDS011;30526;52.184;4.476;2023-07-13T14:49:09;6.30;;;2.13;;
44810;SDS011;30526;52.184;4.476;2023-07-13T14:51:35;8.82;;;2.42;;
44810;SDS011;30526;52.184;4.476;2023-07-13T14:54:02;7.20;;;2.47;;
44810;SDS011;30526;52.184;4.476;2023-07-13T14:56:29;6.90;;;2.45;;
44810;SDS011;30526;52.184;4.476;2023-07-13T14:58:55;9.30;;;2.40;;
44810;SDS011;30526;52.184;4.476;2023-07-13T15:01:21;8.25;;;1.98;;
44810;SDS011;30526;52.184;4.476;2023-07-13T15:03:48;4.63;;;1.85;;
44810;SDS011;30526;52.184;4.476;2023-07-13T15:06:15;4.18;;;1.65;;
44810;SDS011;30526;52.184;4.476;2023-07-13T15:08:42;7.80;;;2.30;;
44810;SDS011;30526;52.184;4.476;2023-07-13T15:11:08;5.00;;;1.65;;
44810;SDS011;30526;52.184;4.476;2023-07-13T15:13:37;5.75;;;2.10;;
44810;SDS011;30526;52.184;4.476;2023-07-13T15:16:04;6.43;;;1.77;;
44810;SDS011;30526;52.184;4.476;2023-07-13T15:18:30;6.78;;;2.13;;
44810;SDS011;30526;52.184;4.476;2023-07-13T15:20:58;5.82;;;1.60;;
44810;SDS011;30526;52.184;4.476;2023-07-13T15:23:27;5.47;;;2.10;;
44810;SDS011;30526;52.184;4.476;2023-07-13T15:25:53;6.03;;;1.50;;
44810;SDS011;30526;52.184;4.476;2023-07-13T15:28:19;4.88;;;2.20;;
44810;SDS011;30526;52.184;4.476;2023-07-13T15:30:46;7.55;;;2.03;;
44810;SDS011;30526;52.184;4.476;2023-07-13T15:33:24;3.90;;;1.77;;
44810;SDS011;30526;52.184;4.476;2023-07-13T15:35:52;5.82;;;2.05;;
44810;SDS011;30526;52.184;4.476;2023-07-13T15:38:23;4.80;;;1.40;;
44810;SDS011;30526;52.184;4.476;2023-07-13T15:40:50;5.68;;;2.33;;
44810;SDS011;30526;52.184;4.476;2023-07-13T15:43:17;5.78;;;1.77;;
44810;SDS011;30526;52.184;4.476;2023-07-13T15:45:44;5.78;;;1.67;;
44810;SDS011;30526;52.184;4.476;2023-07-13T15:48:18;6.82;;;1.70;;
44810;SDS011;30526;52.184;4.476;2023-07-13T15:50:54;5.97;;;1.70;;
44810;SDS011;30526;52.184;4.476;2023-07-13T15:53:25;5.37;;;2.13;;
44810;SDS011;30526;52.184;4.476;2023-07-13T15:55:52;8.55;;;1.77;;